Time;durP1;ratioP1;P1;durP2;ratioP2;P2;SDS_P1;SDS_P2;PMS_P1;PMS_P2;Temp;Humidity;BMP_temperature;BMP_pressure;BME280_temperature;BME280_humidity;BME280_pressure;Samples;Min_cycle;Max_cycle;Signal;HPM_P1;HPM_P2
2022/07/01 00:01:47;;;;;;;9.68;3.90;;;;;;;15.17;79.30;101545.06;5078447;27;96576;-34
2022/07/01 00:04:13;;;;;;;6.45;4.22;;;;;;;15.07;79.44;101547.56;5077319;27;96831;-35
2022/07/01 00:06:38;;;;;;;7.10;3.80;;;;;;;15.08;79.63;101560.22;5078146;27;97402;-35
2022/07/01 00:09:04;;;;;;;7.95;4.20;;;;;;;15.04;79.40;101559.56;5077497;27;97796;-35
2022/07/01 00:11:30;;;;;;;7.45;3.83;;;;;;;15.02;79.59;101561.53;5076311;27;96485;-34
2022/07/01 00:13:56;;;;;;;5.65;3.42;;;;;;;14.97;79.86;101551.88;5076903;27;96864;-35
2022/07/01 00:16:21;;;;;;;7.70;3.50;;;;;;;14.89;81.58;101540.63;5077928;27;99224;-34
2022/07/01 00:18:47;;;;;;;5.72;3.47;;;;;;;14.88;80.34;101534.31;5078149;27;97787;-34
2022/07/01 00:21:12;;;;;;;5.35;3.50;;;;;;;14.90;79.61;101550.56;5078344;27;96422;-35
2022/07/01 00:23:37;;;;;;;6.65;3.58;;;;;;;14.91;80.23;101549.59;5078235;27;96762;-35
2022/07/01 00:26:03;;;;;;;5.93;3.72;;;;;;;14.79;80.88;101538.53;5077749;27;101269;-35
2022/07/01 00:28:28;;;;;;;7.35;3.50;;;;;;;14.85;80.28;101551.75;5077950;27;99410;-35
2022/07/01 00:30:54;;;;;;;6.75;3.85;;;;;;;14.86;80.34;101560.81;5078099;27;97095;-35
2022/07/01 00:33:19;;;;;;;5.53;3.13;;;;;;;14.82;81.07;101565.59;5077676;27;96886;-35
2022/07/01 00:35:44;;;;;;;6.13;3.13;;;;;;;14.87;81.51;101562.56;5077278;27;103273;-35
2022/07/01 00:38:10;;;;;;;6.55;3.85;;;;;;;14.83;81.82;101556.44;5077581;27;97764;-35
2022/07/01 00:40:35;;;;;;;6.80;3.28;;;;;;;14.80;80.16;101562.13;5077749;27;96654;-35
2022/07/01 00:43:01;;;;;;;6.75;3.05;;;;;;;14.88;80.39;101563.44;5078350;27;96799;-34
2022/07/01 00:45:26;;;;;;;8.07;3.63;;;;;;;14.81;81.45;101541.16;5077577;27;97157;-34
2022/07/01 00:47:52;;;;;;;5.70;3.47;;;;;;;14.88;80.93;101550.69;5077534;27;98265;-35
2022/07/01 00:50:18;;;;;;;6.80;3.38;;;;;;;14.90;81.75;101556.00;5076144;27;96721;-35
2022/07/01 00:52:45;;;;;;;7.68;3.25;;;;;;;14.93;80.91;101550.38;5077959;27;96860;-35
2022/07/01 00:55:13;;;;;;;4.93;3.33;;;;;;;14.90;81.51;101537.81;5074815;27;100767;-35
2022/07/01 00:57:40;;;;;;;5.53;3.30;;;;;;;14.90;81.56;101550.56;5075951;27;100870;-35
2022/07/01 01:00:09;;;;;;;6.78;3.80;;;;;;;14.83;80.85;101540.09;5075689;27;96649;-35
2022/07/01 01:02:35;;;;;;;4.72;3.13;;;;;;;14.90;80.71;101545.09;5077320;27;96824;-35
2022/07/01 01:05:02;;;;;;;7.50;4.05;;;;;;;14.81;79.94;101536.59;5075585;27;101384;-35
2022/07/01 01:07:29;;;;;;;6.20;3.72;;;;;;;14.88;79.49;101542.50;5075457;27;100670;-35
2022/07/01 01:09:55;;;;;;;7.70;3.80;;;;;;;14.89;80.26;101540.63;5077528;27;96477;-35
2022/07/01 01:12:21;;;;;;;6.10;3.85;;;;;;;14.87;80.19;101540.72;5077297;27;96893;-35
2022/07/01 01:14:50;;;;;;;7.65;3.90;;;;;;;14.81;80.25;101535.72;5075646;27;100801;-34
2022/07/01 01:17:16;;;;;;;8.50;3.08;;;;;;;14.77;80.81;101551.41;5077315;27;98753;-35
2022/07/01 01:19:43;;;;;;;7.43;3.13;;;;;;;14.74;81.26;101543.44;5075638;27;96689;-35
2022/07/01 01:22:09;;;;;;;6.57;3.55;;;;;;;14.76;80.64;101552.38;5075885;27;96879;-35
2022/07/01 01:24:38;;;;;;;9.18;3.78;;;;;;;14.78;80.59;101546.84;5074730;27;102653;-35
2022/07/01 01:27:04;;;;;;;5.97;3.55;;;;;;;14.81;80.73;101557.53;5075379;27;100735;-35
2022/07/01 01:29:30;;;;;;;7.18;3.88;;;;;;;14.75;80.60;101550.63;5075612;27;96652;-35
2022/07/01 01:31:56;;;;;;;5.88;3.22;;;;;;;14.73;80.58;101548.97;5075706;27;96862;-35
2022/07/01 01:34:21;;;;;;;6.15;3.83;;;;;;;14.66;81.32;101540.38;5076274;27;99276;-35
2022/07/01 01:36:47;;;;;;;6.30;3.38;;;;;;;14.69;81.07;101548.34;5076903;27;97781;-35
2022/07/01 01:39:14;;;;;;;5.88;3.03;;;;;;;14.72;81.95;101567.19;5075551;27;96653;-35
2022/07/01 01:41:40;;;;;;;5.38;3.08;;;;;;;14.73;82.02;101587.16;5075950;27;96760;-35
2022/07/01 01:44:05;;;;;;;5.05;2.90;;;;;;;14.70;82.31;101587.38;5076630;27;98450;-35
2022/07/01 01:46:31;;;;;;;4.53;2.70;;;;;;;14.71;80.37;101586.41;5076548;27;97282;-34
2022/07/01 01:48:57;;;;;;;6.65;2.78;;;;;;;14.70;81.92;101580.06;5076214;27;96748;-35
2022/07/01 01:51:23;;;;;;;4.93;2.80;;;;;;;14.74;81.67;101580.75;5075071;27;96820;-35
2022/07/01 01:53:49;;;;;;;5.40;2.72;;;;;;;14.63;81.60;101574.19;5075123;27;100738;-35
2022/07/01 01:56:14;;;;;;;7.13;3.10;;;;;;;14.67;82.49;101583.00;5074957;27;99254;-35
2022/07/01 01:58:42;;;;;;;7.65;2.65;;;;;;;14.63;80.75;101567.81;5076670;27;96593;-35
2022/07/01 02:01:09;;;;;;;4.60;2.83;;;;;;;14.64;81.39;101562.28;5075136;27;96806;-35
2022/07/01 02:03:35;;;;;;;5.00;3.00;;;;;;;14.56;80.99;101553.75;5074656;27;101137;-35
2022/07/01 02:06:00;;;;;;;7.18;2.35;;;;;;;14.61;80.67;101553.41;5076596;27;97823;-35
2022/07/01 02:08:25;;;;;;;4.97;2.53;;;;;;;14.67;81.53;101563.91;5075544;27;96900;-35
2022/07/01 02:10:51;;;;;;;5.50;2.65;;;;;;;14.68;82.16;101578.41;5076650;27;96730;-35
2022/07/01 02:13:16;;;;;;;5.70;2.35;;;;;;;14.60;81.55;101581.66;5075546;27;99515;-35
2022/07/01 02:15:41;;;;;;;3.67;2.13;;;;;;;14.54;82.03;101574.78;5075907;27;106412;-35
2022/07/01 02:18:07;;;;;;;3.92;2.50;;;;;;;14.56;82.73;101578.28;5076300;27;96622;-35
2022/07/01 02:20:33;;;;;;;5.45;2.83;;;;;;;14.62;81.06;101593.34;5076380;27;96814;-35
2022/07/01 02:22:59;;;;;;;4.85;2.45;;;;;;;14.60;81.27;101595.31;5076105;27;97939;-35
2022/07/01 02:25:24;;;;;;;5.93;2.40;;;;;;;14.64;80.77;101594.13;5075931;27;97787;-35
2022/07/01 02:27:49;;;;;;;4.47;2.75;;;;;;;14.60;80.99;101579.81;5076272;27;96668;-35
2022/07/01 02:30:15;;;;;;;7.53;3.05;;;;;;;14.73;81.13;101587.16;5076688;27;96739;-35
2022/07/01 02:32:40;;;;;;;4.88;2.50;;;;;;;14.71;80.98;101600.06;5075561;27;97916;-35
2022/07/01 02:35:06;;;;;;;4.57;2.42;;;;;;;14.71;81.05;101606.38;5075870;27;97870;-35
2022/07/01 02:37:33;;;;;;;4.70;2.40;;;;;;;14.63;81.00;101590.53;5075344;27;96537;-35
2022/07/01 02:39:58;;;;;;;5.00;2.50;;;;;;;14.65;80.62;101596.72;5076159;27;96736;-35
2022/07/01 02:42:25;;;;;;;5.47;2.63;;;;;;;14.62;80.79;101583.31;5075801;27;97588;-35
2022/07/01 02:44:51;;;;;;;5.03;2.70;;;;;;;14.63;80.58;101592.34;5073980;27;100955;-35
2022/07/01 02:47:16;;;;;;;5.38;2.60;;;;;;;14.59;81.80;101588.09;5076145;27;96682;-35
2022/07/01 02:49:42;;;;;;;5.03;2.40;;;;;;;14.58;81.96;101586.34;5075722;27;96815;-35
2022/07/01 02:52:07;;;;;;;5.15;2.15;;;;;;;14.52;81.68;101578.56;5075543;27;98170;-35
2022/07/01 02:54:32;;;;;;;4.82;2.53;;;;;;;14.63;81.29;101598.72;5076069;27;97771;-35
2022/07/01 02:56:58;;;;;;;5.68;2.38;;;;;;;14.60;81.85;101596.16;5075836;27;96671;-35
2022/07/01 02:59:23;;;;;;;4.18;2.58;;;;;;;14.57;81.91;101590.94;5075949;27;96798;-35
2022/07/01 03:01:48;;;;;;;3.50;1.95;;;;;;;14.60;80.67;101603.47;5074546;27;99456;-35
2022/07/01 03:04:13;;;;;;;5.22;2.67;;;;;;;14.61;81.53;101603.38;5075519;27;97302;-35
2022/07/01 03:06:40;;;;;;;5.53;2.28;;;;;;;14.58;81.10;101616.34;5075700;27;96480;-35
2022/07/01 03:09:06;;;;;;;2.65;1.77;;;;;;;14.54;81.03;101599.31;5075115;27;96796;-35
2022/07/01 03:11:31;;;;;;;3.65;2.25;;;;;;;14.59;81.53;101612.66;5075222;27;102890;-35
2022/07/01 03:13:56;;;;;;;6.60;2.47;;;;;;;14.49;81.13;101595.09;5074971;27;112975;-35
2022/07/01 03:16:22;;;;;;;5.20;2.05;;;;;;;14.51;81.57;101593.16;5075115;27;96651;-35
2022/07/01 03:18:47;;;;;;;2.72;1.80;;;;;;;14.58;81.02;101589.06;5076996;27;96837;-35
2022/07/01 03:21:12;;;;;;;4.55;2.20;;;;;;;14.57;80.71;101593.66;5079068;27;97943;-35
2022/07/01 03:23:38;;;;;;;5.00;2.40;;;;;;;14.49;80.83;101578.75;5078776;27;99137;-35
2022/07/01 03:26:03;;;;;;;4.40;2.15;;;;;;;14.48;81.12;101585.19;5078529;27;96562;-35
2022/07/01 03:28:28;;;;;;;8.88;2.20;;;;;;;14.55;80.67;101586.56;5079097;27;96768;-35
2022/07/01 03:30:54;;;;;;;4.32;2.15;;;;;;;14.50;80.91;101605.03;5078499;27;99285;-35
2022/07/01 03:33:19;;;;;;;8.73;2.10;;;;;;;14.44;80.48;101593.56;5078371;27;97261;-35
2022/07/01 03:35:47;;;;;;;3.75;1.88;;;;;;;14.43;81.06;101602.69;5078982;27;96537;-35
2022/07/01 03:38:13;;;;;;;3.38;1.92;;;;;;;14.40;81.04;101607.50;5077582;27;96808;-35
2022/07/01 03:40:39;;;;;;;3.22;1.70;;;;;;;14.42;81.76;101621.91;5078363;27;99332;-35
2022/07/01 03:43:04;;;;;;;4.78;1.98;;;;;;;14.40;81.67;101622.00;5077470;27;101145;-34
2022/07/01 03:45:30;;;;;;;3.20;1.85;;;;;;;14.39;81.98;101622.97;5078819;27;96790;-35
2022/07/01 03:47:56;;;;;;;4.40;1.70;;;;;;;14.35;81.44;101624.16;5078837;27;96574;-34
2022/07/01 03:50:23;;;;;;;2.88;1.60;;;;;;;14.42;81.24;101630.09;5076386;27;101013;-34
2022/07/01 03:52:48;;;;;;;3.08;1.88;;;;;;;14.42;81.50;101636.41;5078492;27;97769;-35
2022/07/01 03:55:16;;;;;;;2.47;1.60;;;;;;;14.43;81.25;101646.31;5078869;27;96523;-35
2022/07/01 03:57:41;;;;;;;3.25;1.63;;;;;;;14.33;82.34;101644.31;5077076;27;97906;-35
2022/07/01 04:00:08;;;;;;;2.78;1.67;;;;;;;14.34;81.63;101638.72;5077924;27;98200;-35
2022/07/01 04:02:33;;;;;;;3.53;1.50;;;;;;;14.35;81.12;101645.97;5076875;27;101388;-35
2022/07/01 04:04:58;;;;;;;2.33;1.52;;;;;;;14.36;81.08;101647.69;5078469;27;96484;-35
2022/07/01 04:07:25;;;;;;;3.50;1.75;;;;;;;14.27;81.89;101634.66;5078629;27;96879;-34
2022/07/01 04:09:52;;;;;;;2.40;1.48;;;;;;;14.30;81.62;101645.38;5076802;27;100853;-35
2022/07/01 04:12:18;;;;;;;2.13;1.35;;;;;;;14.25;82.00;101652.94;5076754;27;100659;-34
2022/07/01 04:14:44;;;;;;;4.85;2.00;;;;;;;14.21;81.74;101656.88;5076308;27;96608;-35
2022/07/01 04:17:10;;;;;;;3.63;1.83;;;;;;;14.16;81.19;101654.44;5076831;27;96775;-35
2022/07/01 04:19:35;;;;;;;2.45;1.58;;;;;;;14.16;81.98;101649.00;5078060;27;97992;-35
2022/07/01 04:24:45;;;;;;;2.97;1.38;;;;;;;14.27;82.52;101640.09;5078376;27;96494;-35
2022/07/01 04:27:11;;;;;;;3.92;1.73;;;;;;;14.19;81.00;101643.34;5077933;27;96835;-35
2022/07/01 04:29:36;;;;;;;2.22;1.23;;;;;;;14.17;82.48;101652.59;5076217;27;101118;-35
2022/07/01 04:32:02;;;;;;;5.32;1.77;;;;;;;14.20;81.66;101666.00;5078175;27;98031;-35
2022/07/01 04:34:27;;;;;;;3.10;1.33;;;;;;;14.12;82.19;101668.34;5077755;27;96731;-35
2022/07/01 04:36:52;;;;;;;3.28;1.58;;;;;;;14.15;82.69;101671.75;5076583;27;96869;-35
2022/07/01 04:39:18;;;;;;;4.30;2.00;;;;;;;14.14;82.42;101664.56;5077065;27;99228;-35
2022/07/01 04:42:01;;;;;;;3.67;1.27;;;;;;;14.19;82.56;101675.16;5077680;27;97719;-35
2022/07/01 04:44:31;;;;;;;5.63;1.48;;;;;;;14.17;81.65;101685.28;5078152;27;96429;-35
2022/07/01 04:46:57;;;;;;;2.22;1.20;;;;;;;14.15;82.44;101670.88;5076560;27;96781;-34
2022/07/01 04:49:23;;;;;;;3.58;1.40;;;;;;;14.12;81.96;101657.44;5075992;27;100897;-35
2022/07/01 04:51:48;;;;;;;4.90;1.63;;;;;;;14.12;81.97;101654.72;5077086;27;99324;-35
2022/07/01 04:54:14;;;;;;;2.33;1.23;;;;;;;14.20;82.02;101663.28;5077402;27;96715;-35
2022/07/01 04:56:39;;;;;;;7.00;2.00;;;;;;;14.21;81.66;101675.94;5078150;27;96771;-35
2022/07/01 04:59:05;;;;;;;3.08;1.40;;;;;;;14.12;81.94;101662.91;5077053;27;99244;-35
2022/07/01 05:01:31;;;;;;;4.20;1.73;;;;;;;14.17;82.03;101688.00;5076281;27;100453;-35
2022/07/01 05:03:57;;;;;;;1.83;1.30;;;;;;;14.22;82.27;101694.91;5077233;27;96501;-35
2022/07/01 05:06:23;;;;;;;4.40;1.33;;;;;;;14.26;81.90;101695.59;5077482;27;96847;-34
2022/07/01 05:08:49;;;;;;;3.97;1.48;;;;;;;14.29;81.11;101699.97;5076624;27;97916;-35
2022/07/01 05:11:14;;;;;;;1.40;0.90;;;;;;;14.28;81.73;101701.84;5075647;27;100666;-35
2022/07/01 05:13:40;;;;;;;2.00;1.27;;;;;;;14.14;81.34;101685.47;5077496;27;96856;-35
2022/07/01 05:16:08;;;;;;;2.63;1.65;;;;;;;14.28;82.13;101701.84;5077477;27;96737;-35
2022/07/01 05:24:01;;;;;;;3.72;1.15;;;;;;;14.37;81.93;101694.91;5077431;27;96582;-35
2022/07/01 05:26:26;;;;;;;2.50;1.38;;;;;;;14.38;82.45;101685.75;5077226;27;96909;-34
2022/07/01 05:28:53;;;;;;;2.05;1.35;;;;;;;14.44;81.33;101699.88;5076367;27;97868;-34
2022/07/01 05:31:19;;;;;;;2.13;1.38;;;;;;;14.39;81.27;101696.56;5075531;27;101049;-34
2022/07/01 05:33:44;;;;;;;1.40;0.93;;;;;;;14.44;81.99;101694.44;5075355;27;96523;-35
2022/07/01 05:36:10;;;;;;;2.72;1.42;;;;;;;14.54;81.39;101696.56;5077181;27;96829;-35
2022/07/01 05:38:36;;;;;;;2.03;1.15;;;;;;;14.57;81.03;101691.81;5076624;27;98998;-35
2022/07/01 05:41:01;;;;;;;3.35;1.05;;;;;;;14.68;80.84;101704.72;5076380;27;97609;-35
2022/07/01 05:43:27;;;;;;;3.95;1.10;;;;;;;14.71;80.67;101706.41;5076783;27;96610;-35
2022/07/01 05:45:52;;;;;;;3.25;1.40;;;;;;;14.83;81.54;101702.88;5077018;27;96833;-35
2022/07/01 05:48:17;;;;;;;5.82;1.70;;;;;;;14.83;80.85;101694.69;5076885;27;96753;-35
2022/07/01 05:50:43;;;;;;;4.18;1.30;;;;;;;14.90;80.50;101704.22;5075735;27;98544;-35
2022/07/01 05:53:08;;;;;;;2.53;1.33;;;;;;;14.84;80.69;101700.03;5076224;27;96618;-35
2022/07/01 05:55:34;;;;;;;5.63;1.27;;;;;;;14.74;81.16;101692.56;5076444;27;96884;-35
2022/07/01 05:58:01;;;;;;;3.40;1.23;;;;;;;14.65;80.61;101678.53;5076537;27;97553;-35
2022/07/01 06:00:27;;;;;;;3.40;1.15;;;;;;;14.73;81.42;101688.06;5076263;27;99233;-35
2022/07/01 06:02:52;;;;;;;1.13;0.75;;;;;;;14.75;80.88;101689.72;5076752;27;96470;-35
2022/07/01 06:05:18;;;;;;;8.18;1.40;;;;;;;14.70;80.26;101682.81;5076567;27;96717;-35
2022/07/01 06:07:43;;;;;;;3.05;1.40;;;;;;;14.80;80.33;101679.41;5075079;27;97269;-35
2022/07/01 06:10:12;;;;;;;3.15;1.50;;;;;;;14.82;80.55;101685.59;5074741;27;99107;-35
2022/07/01 06:12:39;;;;;;;2.33;1.23;;;;;;;14.80;80.06;101695.78;5074989;27;96651;-35
2022/07/01 06:15:10;;;;;;;3.67;1.45;;;;;;;14.88;80.36;101691.66;5075015;27;96779;-35
2022/07/01 06:17:36;;;;;;;2.40;1.30;;;;;;;14.99;80.06;101697.25;5074009;27;101067;-35
2022/07/01 06:20:03;;;;;;;4.65;1.02;;;;;;;15.03;80.04;101691.50;5074628;27;100844;-35
2022/07/01 06:22:28;;;;;;;2.72;1.35;;;;;;;15.14;79.59;101696.25;5074873;27;96560;-34
2022/07/01 06:24:54;;;;;;;2.30;1.15;;;;;;;15.27;78.95;101701.75;5076327;27;96725;-35
2022/07/01 06:27:19;;;;;;;4.32;1.23;;;;;;;15.38;79.07;101701.03;5075909;27;97498;-35
2022/07/01 06:29:45;;;;;;;2.08;1.13;;;;;;;15.51;78.93;101704.66;5076209;27;97281;-35
2022/07/01 06:32:11;;;;;;;5.85;1.48;;;;;;;15.73;78.13;101708.66;5074541;27;96790;-35
2022/07/01 06:34:36;;;;;;;2.42;1.23;;;;;;;15.82;78.12;101706.16;5076562;27;96883;-35
2022/07/01 06:37:03;;;;;;;4.75;1.55;;;;;;;15.91;77.42;101699.19;5075684;27;99694;-34
2022/07/01 06:39:28;;;;;;;5.30;1.13;;;;;;;15.93;77.29;101691.75;5075586;27;99047;-35
2022/07/01 06:41:55;;;;;;;2.85;1.13;;;;;;;15.97;77.15;101696.03;5075692;27;96656;-35
2022/07/01 06:44:20;;;;;;;6.15;1.17;;;;;;;16.00;77.18;101684.88;5074459;27;96782;-35
2022/07/01 06:46:46;;;;;;;1.77;1.02;;;;;;;16.06;77.04;101680.81;5075370;27;99245;-35
2022/07/01 06:49:11;;;;;;;13.98;1.63;;;;;;;16.18;76.52;101677.19;5075828;27;97852;-35
2022/07/01 06:51:36;;;;;;;2.67;1.20;;;;;;;16.34;75.84;101682.44;5075504;27;97879;-34
2022/07/01 06:54:02;;;;;;;4.25;1.40;;;;;;;16.42;76.28;101691.00;5074481;27;96597;-35
2022/07/01 06:56:27;;;;;;;3.58;0.90;;;;;;;16.52;76.15;101694.78;5075667;27;97501;-34
2022/07/01 06:58:53;;;;;;;1.38;0.95;;;;;;;16.60;75.46;101710.63;5076005;27;97451;-35
2022/07/01 07:01:18;;;;;;;3.65;1.42;;;;;;;16.74;75.44;101695.94;5075585;27;96484;-35
2022/07/01 07:03:44;;;;;;;4.15;1.13;;;;;;;16.83;75.25;101684.34;5075503;27;96783;-34
2022/07/01 07:06:09;;;;;;;5.75;1.27;;;;;;;16.94;75.38;101699.94;5075005;27;97418;-34
2022/07/01 07:08:34;;;;;;;1.88;1.15;;;;;;;17.00;74.26;101691.28;5075071;27;97695;-35
2022/07/01 07:11:00;;;;;;;3.38;1.05;;;;;;;17.08;73.99;101696.19;5075551;27;96556;-35
2022/07/01 07:13:25;;;;;;;2.70;1.20;;;;;;;16.93;73.58;101701.81;5075627;27;96715;-34
2022/07/01 07:15:51;;;;;;;3.83;1.38;;;;;;;17.11;73.86;101699.56;5075189;27;97950;-35
2022/07/01 07:18:17;;;;;;;2.88;1.27;;;;;;;17.02;73.99;101686.59;5075004;27;97877;-35
2022/07/01 07:20:43;;;;;;;2.65;1.50;;;;;;;17.15;74.65;101694.72;5075488;27;96438;-34
2022/07/01 07:23:08;;;;;;;5.20;1.17;;;;;;;17.33;72.92;101700.69;5057387;27;96863;-35
2022/07/01 07:25:34;;;;;;;3.70;0.98;;;;;;;17.44;72.85;101716.28;5075012;27;97531;-34
2022/07/01 07:27:59;;;;;;;2.90;0.88;;;;;;;17.49;73.49;101716.78;5075213;27;97217;-34
2022/07/01 07:30:25;;;;;;;1.85;0.77;;;;;;;17.47;72.62;101719.66;5073578;27;96566;-35
2022/07/01 07:32:51;;;;;;;2.72;1.00;;;;;;;17.29;72.98;101727.41;5075283;27;96736;-35
2022/07/01 07:35:16;;;;;;;1.15;0.80;;;;;;;17.28;72.99;101733.00;5074423;27;112627;-35
2022/07/01 07:37:42;;;;;;;1.88;0.57;;;;;;;17.26;71.16;101713.97;5075070;27;97724;-35
2022/07/01 07:40:14;;;;;;;2.15;0.85;;;;;;;17.37;71.56;101732.28;5075245;27;96552;-35
2022/07/01 07:42:40;;;;;;;1.15;0.57;;;;;;;17.59;71.74;101726.03;5075223;27;96745;-34
2022/07/01 07:45:11;;;;;;;3.50;0.93;;;;;;;17.67;71.11;101723.59;5073326;27;100973;-35
2022/07/01 07:47:37;;;;;;;4.18;0.80;;;;;;;17.65;71.13;101725.56;5073805;27;100978;-35
2022/07/01 07:50:04;;;;;;;4.85;1.13;;;;;;;17.67;71.50;101745.50;5073501;27;96559;-35
2022/07/01 07:52:29;;;;;;;2.05;0.80;;;;;;;17.81;71.15;101736.25;5073622;27;96963;-35
2022/07/01 07:54:55;;;;;;;1.50;0.80;;;;;;;18.07;69.74;101727.84;5074330;27;97940;-35
2022/07/01 07:57:20;;;;;;;3.53;0.80;;;;;;;18.22;68.88;101721.16;5074711;27;97237;-35
2022/07/01 07:59:46;;;;;;;1.55;0.65;;;;;;;18.40;67.53;101727.00;5075110;27;96683;-35
2022/07/01 08:02:11;;;;;;;3.63;1.00;;;;;;;18.44;68.98;101732.13;5075125;27;96820;-35
2022/07/01 08:04:37;;;;;;;3.75;1.25;;;;;;;18.49;69.03;101737.25;5075070;27;97552;-35
2022/07/01 08:07:02;;;;;;;4.22;1.00;;;;;;;18.35;67.94;101734.75;5078277;27;97635;-35
2022/07/01 08:09:28;;;;;;;0.93;0.63;;;;;;;18.38;68.58;101734.50;5076761;27;96641;-35
2022/07/01 08:11:53;;;;;;;1.50;0.70;;;;;;;18.66;68.21;101738.59;5078870;27;96779;-35
2022/07/01 08:14:19;;;;;;;1.98;0.70;;;;;;;18.33;67.24;101723.00;5076331;27;98879;-35
2022/07/01 08:16:44;;;;;;;1.15;0.60;;;;;;;18.40;68.03;101748.94;5077873;27;99023;-35
2022/07/01 08:19:15;;;;;;;3.40;1.05;;;;;;;18.38;67.16;101750.97;5077603;27;96526;-35
2022/07/01 08:21:40;;;;;;;2.40;0.93;;;;;;;18.61;65.25;101740.84;5078274;27;96849;-35
2022/07/01 08:24:06;;;;;;;2.55;0.70;;;;;;;18.56;67.06;101740.38;5077695;27;99167;-35
2022/07/01 08:26:31;;;;;;;2.53;0.60;;;;;;;18.39;66.62;101753.56;5077852;27;97792;-35
2022/07/01 08:28:56;;;;;;;2.63;0.70;;;;;;;18.33;66.12;101755.94;5078274;27;96654;-35
2022/07/01 08:31:22;;;;;;;1.92;0.80;;;;;;;18.58;65.63;101744.72;5078308;27;96813;-35
2022/07/01 08:33:47;;;;;;;3.75;0.75;;;;;;;18.70;65.21;101755.72;5077314;27;98712;-35
2022/07/01 08:36:13;;;;;;;4.45;0.77;;;;;;;18.74;66.47;101758.09;5078252;27;97770;-35
2022/07/01 08:38:39;;;;;;;0.45;0.30;;;;;;;18.85;65.78;101776.44;5078021;27;96628;-35
2022/07/01 08:41:05;;;;;;;1.30;0.47;;;;;;;18.89;65.54;101766.97;5078085;27;96787;-35
2022/07/01 08:43:30;;;;;;;0.65;0.45;;;;;;;19.18;64.26;101771.91;5076870;27;97329;-35
2022/07/01 08:45:59;;;;;;;3.78;0.85;;;;;;;19.32;62.21;101766.13;5075898;27;100939;-35
2022/07/01 08:48:24;;;;;;;1.63;0.65;;;;;;;19.66;63.57;101775.16;5077679;27;97128;-35
2022/07/01 08:50:50;;;;;;;1.25;0.57;;;;;;;19.78;62.99;101784.25;5077640;27;96734;-35
2022/07/01 08:53:15;;;;;;;2.78;0.57;;;;;;;19.76;63.16;101789.03;5077410;27;99408;-35
2022/07/01 08:58:26;;;;;;;1.77;0.70;;;;;;;19.97;62.02;101782.66;5078066;27;96533;-35
2022/07/01 09:00:52;;;;;;;3.45;0.98;;;;;;;20.13;59.27;101786.69;5076491;27;96858;-35
2022/07/01 09:03:22;;;;;;;2.33;0.95;;;;;;;20.27;60.77;101781.88;5077043;27;98897;-35
2022/07/01 09:05:52;;;;;;;1.98;0.70;;;;;;;20.09;60.96;101781.59;5076974;27;99045;-35
2022/07/01 09:08:19;;;;;;;0.95;0.68;;;;;;;20.21;59.53;101794.28;5074784;27;96794;-35
2022/07/01 09:10:44;;;;;;;1.02;0.60;;;;;;;20.36;59.79;101795.69;5076082;27;96881;-35
2022/07/01 09:13:11;;;;;;;4.15;0.60;;;;;;;20.31;58.18;101798.00;5077253;27;97921;-35
2022/07/01 09:15:39;;;;;;;1.67;0.57;;;;;;;20.32;57.50;101787.84;5075421;27;101024;-35
2022/07/01 09:18:17;;;;;;;0.88;0.50;;;;;;;20.35;56.66;101798.56;5075013;27;96539;-35
2022/07/01 09:20:45;;;;;;;2.65;0.40;;;;;;;20.14;58.47;101798.56;5077311;27;96663;-35
2022/07/01 09:23:13;;;;;;;1.20;0.50;;;;;;;20.13;59.14;101786.69;5075401;27;101009;-35
2022/07/01 09:25:51;;;;;;;0.98;0.55;;;;;;;20.37;58.93;101780.06;5075689;27;100902;-35
2022/07/01 09:28:17;;;;;;;3.63;0.50;;;;;;;20.62;58.38;101797.16;5077220;27;96729;-35
2022/07/01 09:30:51;;;;;;;1.85;0.70;;;;;;;20.82;57.61;101795.41;5075848;27;96828;-35
2022/07/01 09:33:23;;;;;;;1.63;0.50;;;;;;;20.58;54.43;101791.94;5074737;27;101196;-35
2022/07/01 09:35:49;;;;;;;3.72;0.98;;;;;;;20.27;58.81;101798.41;5075376;27;100681;-35
2022/07/01 09:38:17;;;;;;;2.78;0.43;;;;;;;20.15;59.42;101805.84;5075660;27;96498;-35
2022/07/01 09:40:57;;;;;;;2.58;0.80;;;;;;;20.19;57.64;101787.16;5075673;27;96815;-35
2022/07/01 09:43:26;;;;;;;0.85;0.30;;;;;;;20.02;56.88;101802.38;5076819;27;97387;-35
2022/07/01 09:45:56;;;;;;;0.77;0.30;;;;;;;19.93;58.88;101810.44;5074866;27;100952;-35
2022/07/01 09:48:23;;;;;;;1.83;0.50;;;;;;;20.19;58.46;101807.31;5075359;27;96656;-35
2022/07/01 09:50:49;;;;;;;1.52;0.70;;;;;;;20.54;58.06;101806.09;5075599;27;96802;-35
2022/07/01 09:53:15;;;;;;;1.48;0.55;;;;;;;20.71;57.70;101816.53;5075002;27;101243;-35
2022/07/01 09:55:40;;;;;;;1.52;0.65;;;;;;;20.34;56.39;101805.97;5076253;27;99106;-35
2022/07/01 09:58:06;;;;;;;1.00;0.28;;;;;;;20.53;57.54;101812.59;5076189;27;96708;-35
2022/07/01 10:00:32;;;;;;;1.27;0.60;;;;;;;20.53;57.40;101816.22;5076140;27;97315;-36
2022/07/01 10:03:10;;;;;;;0.75;0.38;;;;;;;20.59;56.45;101820.34;5074795;27;99090;-35
2022/07/01 10:05:42;;;;;;;1.80;0.38;;;;;;;20.90;57.32;101832.25;5074839;27;100994;-35
2022/07/01 10:08:19;;;;;;;2.30;0.35;;;;;;;21.05;55.33;101834.66;5074628;27;96619;-34
2022/07/01 10:10:59;;;;;;;5.53;0.70;;;;;;;20.91;55.83;101841.41;5075250;27;96812;-35
2022/07/01 10:13:27;;;;;;;1.80;0.60;;;;;;;20.64;56.26;101836.44;5074734;27;101416;-35
2022/07/01 10:15:54;;;;;;;1.40;0.38;;;;;;;20.56;54.63;101832.50;5075052;27;100043;-35
2022/07/01 10:18:21;;;;;;;3.88;0.57;;;;;;;20.62;54.64;101842.13;5074951;27;96855;-35
2022/07/01 10:20:48;;;;;;;0.70;0.30;;;;;;;20.59;54.06;101836.84;5075018;27;96891;-35
2022/07/01 10:23:13;;;;;;;2.22;0.47;;;;;;;20.77;54.13;101840.75;5074024;27;100918;-35
2022/07/01 10:25:44;;;;;;;1.33;0.43;;;;;;;21.18;53.53;101854.56;5075740;27;97783;-35
2022/07/01 10:28:25;;;;;;;1.07;0.27;;;;;;;21.17;51.37;101850.06;5074699;27;96494;-35
2022/07/01 10:31:01;;;;;;;1.10;0.40;;;;;;;21.12;51.62;101864.25;5076295;27;96748;-35
2022/07/01 10:33:49;;;;;;;2.00;0.32;;;;;;;21.14;50.80;101865.00;5074319;27;101036;-35
2022/07/01 10:36:22;;;;;;;0.85;0.40;;;;;;;21.23;52.25;101855.00;5074286;27;101030;-35
2022/07/01 10:41:30;;;;;;;2.60;0.40;;;;;;;21.07;47.75;101852.78;5076476;27;96783;-35
2022/07/01 10:43:56;;;;;;;1.83;0.73;;;;;;;20.62;53.46;101857.75;5074142;27;100802;-35
2022/07/01 10:46:46;;;;;;;0.90;0.50;;;;;;;20.87;52.98;101853.69;5073896;27;101024;-35
2022/07/01 10:49:33;;;;;;;1.95;0.30;;;;;;;21.25;52.40;101843.84;5074076;27;96542;-35
2022/07/01 10:51:58;;;;;;;1.70;0.55;;;;;;;21.27;49.45;101852.84;5071119;27;96842;-35
2022/07/01 10:54:36;;;;;;;0.80;0.28;;;;;;;21.38;52.22;101847.22;5075679;27;98064;-35
2022/07/01 10:57:16;;;;;;;2.83;0.85;;;;;;;21.85;50.19;101847.50;5075509;27;97944;-35
2022/07/01 10:59:52;;;;;;;3.10;0.82;;;;;;;21.82;50.23;101831.25;5075885;27;96668;-35
2022/07/01 11:02:21;;;;;;;0.70;0.30;;;;;;;22.01;50.46;101844.16;5075883;27;96657;-35
2022/07/01 11:04:48;;;;;;;1.90;0.45;;;;;;;22.12;49.42;101838.50;5073768;27;101280;-35
2022/07/01 11:07:14;;;;;;;1.65;0.45;;;;;;;22.13;48.96;101837.50;5073960;27;100849;-35
2022/07/01 11:09:39;;;;;;;0.55;0.40;;;;;;;21.80;46.70;101834.13;5075860;27;96850;-35
2022/07/01 11:12:08;;;;;;;3.05;0.70;;;;;;;21.76;48.83;101838.22;5075835;27;96780;-35
2022/07/01 11:14:36;;;;;;;2.08;0.60;;;;;;;22.15;49.51;101834.59;5073399;27;100980;-35
2022/07/01 11:17:08;;;;;;;1.33;0.40;;;;;;;22.34;46.44;101837.38;5073800;27;100637;-36
2022/07/01 11:19:34;;;;;;;1.20;0.60;;;;;;;22.15;48.14;101827.19;5073927;27;96615;-35
2022/07/01 11:22:00;;;;;;;4.07;0.63;;;;;;;22.44;48.74;101816.13;5075602;27;96798;-35
2022/07/01 11:24:26;;;;;;;0.55;0.35;;;;;;;22.20;47.93;101833.16;5073800;27;101391;-35
2022/07/01 11:27:06;;;;;;;1.92;0.50;;;;;;;21.61;48.14;101846.00;5073704;27;101301;-35
2022/07/01 11:29:32;;;;;;;1.33;0.40;;;;;;;21.01;50.78;101842.31;5075490;27;96577;-35
2022/07/01 11:31:57;;;;;;;2.90;0.50;;;;;;;20.81;50.65;101855.13;5075724;27;96838;-35
2022/07/01 11:34:22;;;;;;;10.90;5.18;;;;;;;20.46;50.79;101858.19;5074736;27;97426;-35
2022/07/01 11:39:35;;;;;;;2.58;0.93;;;;;;;20.38;52.43;101869.88;5074165;27;96540;-35